createdAt,value
2022-10-13T00:00:07.980Z,8.80
2022-10-13T00:02:34.134Z,9.63
2022-10-13T00:05:00.257Z,8.82
2022-10-13T00:07:26.385Z,8.65
2022-10-13T00:09:52.514Z,8.95
2022-10-13T00:12:18.989Z,9.45
2022-10-13T00:14:45.376Z,8.07
2022-10-13T00:17:11.501Z,9.05
2022-10-13T00:19:37.652Z,8.77
2022-10-13T00:22:03.799Z,8.88
2022-10-13T00:24:29.934Z,8.15
2022-10-13T00:26:56.095Z,8.23
2022-10-13T00:29:22.210Z,8.15
2022-10-13T00:31:48.482Z,8.75
2022-10-13T00:34:14.613Z,8.50
2022-10-13T00:36:40.869Z,8.57
2022-10-13T00:39:06.983Z,9.80
2022-10-13T00:41:33.127Z,8.20
2022-10-13T00:43:59.228Z,9.27
2022-10-13T00:46:25.361Z,8.63
2022-10-13T00:48:51.528Z,8.85
2022-10-13T00:51:17.722Z,9.52
2022-10-13T00:53:43.886Z,8.50
2022-10-13T00:56:10.006Z,8.88
2022-10-13T00:58:36.162Z,9.18
2022-10-13T01:01:02.332Z,8.85
2022-10-13T01:03:28.492Z,8.50
2022-10-13T01:05:54.640Z,9.65
2022-10-13T01:08:20.757Z,8.07
2022-10-13T01:10:46.886Z,7.93
2022-10-13T01:13:13.034Z,8.25
2022-10-13T01:15:39.173Z,8.10
2022-10-13T01:18:05.327Z,8.40
2022-10-13T01:20:31.459Z,8.40
2022-10-13T01:22:57.577Z,9.27
2022-10-13T01:25:23.712Z,8.90
2022-10-13T01:27:49.841Z,9.15
2022-10-13T01:30:16.927Z,8.95
2022-10-13T01:32:43.070Z,9.25
2022-10-13T01:35:09.174Z,9.50
2022-10-13T01:37:35.308Z,9.13
2022-10-13T01:40:01.443Z,11.25
2022-10-13T01:42:27.675Z,10.55
2022-10-13T01:44:53.797Z,11.30
2022-10-13T01:47:19.930Z,12.10
2022-10-13T01:49:46.071Z,10.70
2022-10-13T01:52:12.180Z,13.32
2022-10-13T01:54:38.306Z,11.93
2022-10-13T01:57:04.601Z,13.88
2022-10-13T01:59:30.732Z,16.42
2022-10-13T02:01:56.848Z,19.27
2022-10-13T02:04:23.094Z,13.10
2022-10-13T02:06:49.230Z,12.93
2022-10-13T02:09:15.350Z,21.60
2022-10-13T02:11:41.527Z,13.43
2022-10-13T02:14:07.657Z,17.05
2022-10-13T02:16:33.785Z,24.42
2022-10-13T02:18:59.928Z,29.70
2022-10-13T02:21:26.054Z,22.63
2022-10-13T02:23:52.238Z,29.13
2022-10-13T02:26:18.358Z,16.33
2022-10-13T02:28:44.532Z,25.27
2022-10-13T02:31:10.717Z,14.55
2022-10-13T02:33:36.852Z,20.27
2022-10-13T02:36:03.007Z,21.90
2022-10-13T02:38:29.164Z,21.13
2022-10-13T02:40:55.279Z,18.40
2022-10-13T02:43:21.478Z,16.35
2022-10-13T02:45:47.591Z,17.35
2022-10-13T02:48:13.757Z,17.80
2022-10-13T02:50:39.879Z,15.30
2022-10-13T02:53:05.994Z,17.83
2022-10-13T02:55:32.113Z,23.63
2022-10-13T02:57:58.356Z,22.20
2022-10-13T03:00:24.475Z,19.85
2022-10-13T03:02:50.634Z,21.77
2022-10-13T03:05:16.785Z,21.23
2022-10-13T03:07:42.916Z,21.25
2022-10-13T03:10:09.144Z,28.27
2022-10-13T03:12:35.304Z,20.67
2022-10-13T03:15:01.417Z,19.17
2022-10-13T03:17:27.532Z,24.73
2022-10-13T03:19:53.664Z,23.30
2022-10-13T03:22:20.078Z,16.80
2022-10-13T03:24:46.429Z,20.15
2022-10-13T03:27:12.554Z,21.67
2022-10-13T03:29:38.691Z,24.90
2022-10-13T03:32:04.838Z,20.85
2022-10-13T03:34:31.103Z,21.42
2022-10-13T03:36:57.251Z,19.15
2022-10-13T03:39:23.365Z,19.52
2022-10-13T03:41:49.494Z,21.40
2022-10-13T03:44:15.648Z,20.85
2022-10-13T03:46:41.769Z,17.90
2022-10-13T03:49:07.893Z,19.13
2022-10-13T03:51:34.168Z,18.25
2022-10-13T03:54:00.302Z,17.38
2022-10-13T03:56:26.562Z,19.00
2022-10-13T03:58:52.697Z,20.42
2022-10-13T04:01:18.882Z,20.08
2022-10-13T04:03:45.039Z,18.38
2022-10-13T04:06:11.183Z,19.10
2022-10-13T04:08:37.311Z,22.27
2022-10-13T04:11:03.432Z,21.50
2022-10-13T04:13:29.621Z,16.95
2022-10-13T04:15:55.863Z,20.10
2022-10-13T04:18:21.999Z,18.90
2022-10-13T04:20:48.204Z,14.35
2022-10-13T04:23:14.403Z,15.50
2022-10-13T04:25:40.549Z,16.70
2022-10-13T04:28:06.660Z,14.82
2022-10-13T04:30:32.778Z,14.73
2022-10-13T04:32:58.911Z,15.07
2022-10-13T04:35:25.027Z,14.07
2022-10-13T04:37:51.170Z,14.52
2022-10-13T04:40:17.306Z,14.15
2022-10-13T04:42:43.501Z,15.35
2022-10-13T04:45:09.625Z,14.38
2022-10-13T04:47:37.127Z,14.02
2022-10-13T04:50:03.409Z,14.15
2022-10-13T04:52:29.536Z,15.50
2022-10-13T04:54:55.688Z,16.33
2022-10-13T04:57:21.853Z,17.90
2022-10-13T04:59:47.959Z,15.77
2022-10-13T05:02:14.135Z,17.77
2022-10-13T05:04:40.481Z,14.95
2022-10-13T05:07:17.454Z,15.55
2022-10-13T05:09:44.325Z,15.45
2022-10-13T05:12:10.466Z,15.85
2022-10-13T05:14:36.652Z,16.83
2022-10-13T05:17:02.773Z,15.68
2022-10-13T05:19:28.918Z,15.68
2022-10-13T05:21:55.058Z,15.70
2022-10-13T05:24:21.218Z,15.52
2022-10-13T05:26:47.365Z,17.42
2022-10-13T05:29:13.511Z,16.23
2022-10-13T05:31:39.651Z,15.55
2022-10-13T05:34:05.908Z,15.95
2022-10-13T05:36:32.036Z,16.23
2022-10-13T05:38:58.142Z,15.35
2022-10-13T05:41:24.277Z,16.13
2022-10-13T05:43:50.422Z,15.48
2022-10-13T05:46:16.548Z,14.60
2022-10-13T05:48:42.794Z,14.35
2022-10-13T05:51:08.972Z,14.88
2022-10-13T05:53:35.090Z,14.30
2022-10-13T05:56:01.215Z,15.55
2022-10-13T05:58:27.333Z,14.88
2022-10-13T06:00:53.460Z,15.88
2022-10-13T06:03:19.612Z,15.13
2022-10-13T06:05:45.746Z,15.85
2022-10-13T06:08:11.875Z,14.68
2022-10-13T06:10:38.022Z,15.25
2022-10-13T06:13:04.146Z,15.10
2022-10-13T06:15:30.279Z,13.73
2022-10-13T06:17:59.258Z,13.43
2022-10-13T06:20:25.473Z,12.95
2022-10-13T06:22:51.617Z,14.00
2022-10-13T06:25:17.756Z,14.10
2022-10-13T06:27:43.906Z,13.02
2022-10-13T06:30:10.061Z,13.40
2022-10-13T06:32:36.222Z,13.15
2022-10-13T06:35:02.339Z,12.40
2022-10-13T06:37:29.935Z,12.70
2022-10-13T06:39:57.065Z,13.10
2022-10-13T06:42:34.718Z,13.93
2022-10-13T06:45:13.851Z,12.88
2022-10-13T06:50:30.365Z,13.73
2022-10-13T06:53:08.964Z,14.98
2022-10-13T06:58:17.870Z,12.82
2022-10-13T07:00:48.687Z,12.82
2022-10-13T07:03:15.473Z,14.10
2022-10-13T07:05:42.894Z,13.50
2022-10-13T07:08:09.062Z,12.88
2022-10-13T07:13:15.430Z,13.30
2022-10-13T07:15:41.977Z,14.38
2022-10-13T07:18:08.142Z,13.65
2022-10-13T07:20:34.309Z,14.52
2022-10-13T07:23:00.483Z,14.00
2022-10-13T07:25:26.641Z,13.52
2022-10-13T07:27:52.755Z,13.93
2022-10-13T07:30:19.141Z,15.57
2022-10-13T07:32:45.271Z,13.68
2022-10-13T07:35:13.809Z,13.95
2022-10-13T07:37:39.950Z,13.38
2022-10-13T07:40:06.244Z,13.38
2022-10-13T07:42:32.391Z,13.27
2022-10-13T07:44:58.497Z,14.10
2022-10-13T07:47:24.678Z,15.05
2022-10-13T07:49:50.813Z,13.52
2022-10-13T07:52:17.123Z,13.25
2022-10-13T07:54:43.499Z,13.80
2022-10-13T07:57:09.752Z,12.65
2022-10-13T07:59:35.904Z,13.90
2022-10-13T08:02:02.022Z,13.57
2022-10-13T08:04:28.162Z,13.75
2022-10-13T08:06:54.274Z,13.57
2022-10-13T08:09:20.612Z,13.55
2022-10-13T08:11:46.752Z,13.32
2022-10-13T08:14:12.899Z,12.85
2022-10-13T08:16:39.019Z,12.95
2022-10-13T08:19:05.149Z,14.23
2022-10-13T08:24:17.413Z,13.07
2022-10-13T08:26:43.551Z,13.80
2022-10-13T08:29:25.012Z,12.70
2022-10-13T08:31:51.370Z,12.75
2022-10-13T08:34:17.615Z,13.93
2022-10-13T08:36:43.760Z,13.98
2022-10-13T08:39:09.879Z,13.90
2022-10-13T08:41:36.023Z,12.73
2022-10-13T08:44:49.532Z,12.65
2022-10-13T08:46:48.341Z,12.80
2022-10-13T08:49:14.468Z,13.68
2022-10-13T08:51:40.617Z,12.57
2022-10-13T08:54:07.034Z,13.43
2022-10-13T08:56:33.201Z,12.48
2022-10-13T08:58:59.396Z,13.07
2022-10-13T09:01:25.624Z,12.93
2022-10-13T09:03:51.810Z,13.75
2022-10-13T09:06:17.953Z,14.20
2022-10-13T09:08:44.135Z,13.38
2022-10-13T09:11:10.297Z,13.63
2022-10-13T09:13:36.435Z,13.57
2022-10-13T09:16:02.585Z,13.75
2022-10-13T09:18:28.703Z,13.35
2022-10-13T09:20:54.859Z,14.30
2022-10-13T09:23:20.968Z,12.95
2022-10-13T09:25:47.136Z,13.52
2022-10-13T09:28:13.315Z,13.07
2022-10-13T09:30:39.440Z,13.65
2022-10-13T09:33:05.621Z,13.63
2022-10-13T09:35:31.754Z,14.77
2022-10-13T09:37:57.922Z,13.65
2022-10-13T09:40:24.056Z,14.43
2022-10-13T09:42:50.215Z,13.25
2022-10-13T09:45:16.361Z,14.05
2022-10-13T09:47:42.582Z,14.02
2022-10-13T09:50:08.734Z,13.35
2022-10-13T09:52:34.871Z,13.02
2022-10-13T09:55:00.986Z,14.60
2022-10-13T09:57:27.381Z,13.98
2022-10-13T09:59:53.577Z,14.02
2022-10-13T10:02:21.356Z,14.20
2022-10-13T10:04:49.912Z,13.43
2022-10-13T10:07:16.043Z,14.45
2022-10-13T10:09:42.198Z,14.10
2022-10-13T10:12:11.359Z,14.63
2022-10-13T10:14:37.500Z,14.82
2022-10-13T10:17:03.630Z,14.82
2022-10-13T10:19:29.882Z,15.38
2022-10-13T10:21:56.019Z,14.65
2022-10-13T10:24:22.176Z,14.27
2022-10-13T10:26:48.293Z,13.77
2022-10-13T10:29:14.464Z,14.27
2022-10-13T10:31:40.590Z,14.80
2022-10-13T10:34:06.761Z,15.07
2022-10-13T10:36:32.893Z,16.42
2022-10-13T10:38:59.014Z,14.52
2022-10-13T10:41:25.156Z,16.27
2022-10-13T10:43:51.289Z,16.42
2022-10-13T10:46:17.443Z,15.45
2022-10-13T10:48:43.571Z,16.35
2022-10-13T10:51:09.725Z,14.27
2022-10-13T10:53:35.851Z,14.40
2022-10-13T10:56:02.008Z,14.45
2022-10-13T10:58:28.122Z,14.52
2022-10-13T11:06:37.280Z,15.45
2022-10-13T11:09:03.399Z,15.43
2022-10-13T11:11:32.303Z,16.58
2022-10-13T11:14:02.696Z,15.55
2022-10-13T11:16:28.843Z,15.95
2022-10-13T11:18:54.981Z,15.27
2022-10-13T11:21:21.194Z,15.35
2022-10-13T11:23:47.326Z,15.13
2022-10-13T11:26:13.445Z,15.57
2022-10-13T11:28:39.622Z,14.88
2022-10-13T11:31:05.796Z,14.55
2022-10-13T11:33:31.951Z,14.73
2022-10-13T11:35:58.077Z,17.98
2022-10-13T11:38:24.194Z,15.68
2022-10-13T11:40:50.329Z,14.10
2022-10-13T11:43:16.461Z,13.52
2022-10-13T11:45:42.592Z,15.05
2022-10-13T11:50:35.803Z,13.85
2022-10-13T11:53:02.066Z,13.70
2022-10-13T11:55:28.206Z,12.57
2022-10-13T11:57:54.341Z,13.15
2022-10-13T12:00:20.547Z,12.77
2022-10-13T12:02:46.707Z,11.75
2022-10-13T12:05:12.922Z,11.93
2022-10-13T12:07:39.082Z,12.48
2022-10-13T12:10:05.279Z,11.88
2022-10-13T12:12:31.434Z,12.27
2022-10-13T12:14:59.976Z,11.65
2022-10-13T12:17:29.245Z,11.00
2022-10-13T12:19:55.815Z,12.60
2022-10-13T12:22:21.933Z,12.27
2022-10-13T12:24:48.064Z,13.18
2022-10-13T12:27:14.251Z,10.90
2022-10-13T12:29:40.415Z,12.50
2022-10-13T12:32:06.555Z,12.05
2022-10-13T12:34:32.757Z,11.65
2022-10-13T12:36:58.886Z,11.35
2022-10-13T12:39:25.046Z,11.85
2022-10-13T12:41:51.171Z,12.50
2022-10-13T12:44:17.295Z,11.60
2022-10-13T12:46:43.433Z,12.65
2022-10-13T12:49:09.596Z,12.88
2022-10-13T12:51:35.750Z,12.00
2022-10-13T12:54:01.897Z,11.77
2022-10-13T12:56:28.062Z,11.52
2022-10-13T12:58:54.209Z,11.85
2022-10-13T13:01:20.746Z,10.63
2022-10-13T13:03:46.995Z,10.95
2022-10-13T13:06:13.148Z,10.57
2022-10-13T13:08:39.509Z,11.10
2022-10-13T13:11:05.630Z,10.65
2022-10-13T13:13:31.779Z,10.48
2022-10-13T13:15:57.890Z,10.77
2022-10-13T13:18:24.063Z,11.15
2022-10-13T13:20:50.395Z,10.48
2022-10-13T13:23:16.552Z,10.07
2022-10-13T13:25:42.657Z,10.40
2022-10-13T13:28:08.792Z,10.60
2022-10-13T13:30:34.930Z,10.52
2022-10-13T13:33:01.147Z,12.15
2022-10-13T13:35:27.356Z,10.50
2022-10-13T13:37:53.514Z,10.43
2022-10-13T13:40:19.664Z,11.20
2022-10-13T13:42:45.895Z,10.80
2022-10-13T13:45:12.117Z,11.05
2022-10-13T13:47:38.293Z,11.00
2022-10-13T13:50:04.424Z,10.38
2022-10-13T13:52:30.544Z,9.63
2022-10-13T13:54:56.690Z,9.73
2022-10-13T13:57:23.203Z,9.73
2022-10-13T13:59:49.414Z,10.60
2022-10-13T14:02:15.720Z,10.35
2022-10-13T14:04:41.868Z,9.90
2022-10-13T14:07:08.009Z,9.68
2022-10-13T14:09:34.132Z,8.52
2022-10-13T14:12:00.251Z,8.43
2022-10-13T14:14:26.403Z,9.73
2022-10-13T14:16:52.551Z,8.68
2022-10-13T14:19:18.703Z,9.30
2022-10-13T14:21:44.818Z,7.57
2022-10-13T14:24:10.975Z,8.50
2022-10-13T14:26:37.108Z,10.40
2022-10-13T14:29:03.230Z,8.68
2022-10-13T14:31:29.381Z,9.27
2022-10-13T14:33:55.488Z,10.05
2022-10-13T14:36:22.423Z,9.68
2022-10-13T14:38:50.685Z,9.38
2022-10-13T14:41:16.811Z,9.57
2022-10-13T14:43:42.973Z,10.48
2022-10-13T14:46:09.125Z,9.82
2022-10-13T14:48:35.269Z,8.85
2022-10-13T14:51:01.405Z,10.07
2022-10-13T14:53:27.510Z,9.73
2022-10-13T14:55:53.656Z,11.13
2022-10-13T14:58:20.958Z,10.57
2022-10-13T15:00:47.179Z,9.68
2022-10-13T15:03:13.392Z,9.80
2022-10-13T15:05:39.539Z,10.48
2022-10-13T15:08:05.698Z,9.65
2022-10-13T15:10:31.851Z,10.57
2022-10-13T15:12:58.028Z,9.70
2022-10-13T15:15:24.147Z,10.40
2022-10-13T15:17:50.318Z,10.73
2022-10-13T15:20:16.438Z,10.00
2022-10-13T15:22:42.752Z,10.65
2022-10-13T15:25:08.875Z,8.77
2022-10-13T15:27:38.094Z,11.32
2022-10-13T15:30:07.720Z,10.13
2022-10-13T15:32:33.830Z,10.85
2022-10-13T15:34:59.964Z,10.57
2022-10-13T15:37:26.131Z,11.35
2022-10-13T15:39:57.197Z,11.45
2022-10-13T15:42:23.887Z,10.13
2022-10-13T15:45:08.781Z,10.35
2022-10-13T15:47:35.913Z,11.10
2022-10-13T15:50:02.077Z,9.60
2022-10-13T15:52:33.838Z,10.90
2022-10-13T15:55:01.180Z,10.02
2022-10-13T15:57:27.307Z,9.73
2022-10-13T15:59:53.473Z,11.23
2022-10-13T16:02:19.916Z,9.82
2022-10-13T16:04:46.238Z,10.00
2022-10-13T16:07:12.388Z,10.75
2022-10-13T16:09:38.512Z,9.13
2022-10-13T16:12:04.649Z,9.48
2022-10-13T16:14:30.827Z,9.70
2022-10-13T16:16:59.988Z,12.82
2022-10-13T16:19:26.152Z,12.27
2022-10-13T16:21:52.294Z,11.57
2022-10-13T16:24:18.492Z,12.77
2022-10-13T16:26:44.634Z,11.38
2022-10-13T16:29:10.741Z,10.52
2022-10-13T16:31:36.865Z,11.32
2022-10-13T16:34:03.038Z,10.43
2022-10-13T16:36:29.177Z,11.68
2022-10-13T16:38:55.320Z,10.40
2022-10-13T16:41:21.463Z,10.73
2022-10-13T16:43:47.613Z,11.10
2022-10-13T16:46:13.749Z,9.77
2022-10-13T16:48:39.904Z,10.70
2022-10-13T16:51:06.065Z,9.40
2022-10-13T16:53:32.202Z,10.90
2022-10-13T16:55:58.392Z,11.18
2022-10-13T16:58:24.534Z,11.80
2022-10-13T17:00:50.754Z,10.60
2022-10-13T17:03:16.970Z,10.85
2022-10-13T17:05:43.082Z,11.30
2022-10-13T17:08:09.274Z,11.30
2022-10-13T17:10:35.409Z,10.75
2022-10-13T17:13:01.570Z,11.20
2022-10-13T17:15:27.712Z,11.60
2022-10-13T17:17:53.848Z,10.85
2022-10-13T17:20:19.962Z,10.43
2022-10-13T17:22:46.129Z,10.95
2022-10-13T17:25:12.248Z,11.88
2022-10-13T17:27:38.419Z,11.75
2022-10-13T17:30:04.585Z,10.63
2022-10-13T17:32:30.719Z,11.30
2022-10-13T17:34:56.842Z,10.90
2022-10-13T17:37:23.355Z,10.55
2022-10-13T17:39:49.747Z,10.05
2022-10-13T17:42:15.866Z,10.50
2022-10-13T17:44:42.030Z,11.23
2022-10-13T17:47:08.579Z,11.60
2022-10-13T17:49:34.713Z,11.50
2022-10-13T17:52:00.879Z,12.25
2022-10-13T17:54:27.044Z,12.60
2022-10-13T17:56:53.184Z,14.10
2022-10-13T17:59:19.316Z,13.07
2022-10-13T18:01:45.525Z,13.75
2022-10-13T18:04:11.705Z,12.13
2022-10-13T18:06:38.918Z,23.73
2022-10-13T18:09:05.139Z,12.15
2022-10-13T18:11:31.277Z,12.32
2022-10-13T18:13:57.393Z,12.43
2022-10-13T18:16:25.891Z,13.02
2022-10-13T18:18:52.031Z,12.63
2022-10-13T18:21:18.183Z,12.52
2022-10-13T18:23:44.338Z,13.60
2022-10-13T18:26:10.520Z,15.45
2022-10-13T18:28:36.725Z,17.70
2022-10-13T18:31:02.973Z,16.77
2022-10-13T18:33:35.728Z,12.55
2022-10-13T18:36:02.006Z,13.32
2022-10-13T18:38:28.158Z,11.90
2022-10-13T18:40:54.357Z,11.00
2022-10-13T18:43:20.523Z,12.45
2022-10-13T18:45:47.074Z,12.55
2022-10-13T18:48:13.237Z,10.95
2022-10-13T18:50:39.369Z,12.00
2022-10-13T18:55:56.612Z,12.63
2022-10-13T18:58:23.953Z,13.55
2022-10-13T19:14:27.126Z,12.45
2022-10-13T20:27:16.651Z,13.05
2022-10-13T20:29:44.136Z,13.07
2022-10-13T20:32:17.138Z,12.55
2022-10-13T20:34:43.445Z,13.98
2022-10-13T20:37:11.558Z,13.98
2022-10-13T20:39:42.622Z,13.77
2022-10-13T20:42:08.881Z,14.60
2022-10-13T20:44:35.128Z,14.30
2022-10-13T20:47:01.356Z,15.10
2022-10-13T20:49:29.728Z,15.00
2022-10-13T20:51:55.976Z,14.07
2022-10-13T20:54:22.358Z,14.48
2022-10-13T20:56:48.589Z,14.32
2022-10-13T20:59:14.952Z,14.73
2022-10-13T21:01:41.179Z,14.57
2022-10-13T21:04:07.513Z,15.20
2022-10-13T21:06:33.902Z,14.27
2022-10-13T21:09:00.131Z,14.77
2022-10-13T21:11:26.626Z,13.80
2022-10-13T21:13:52.992Z,14.73
2022-10-13T21:16:20.217Z,14.05
2022-10-13T21:18:47.962Z,14.27
2022-10-13T21:21:14.181Z,14.48
2022-10-13T21:23:40.364Z,13.13
2022-10-13T21:26:06.581Z,13.73
2022-10-13T21:28:32.892Z,13.70
2022-10-13T21:30:59.252Z,13.55
2022-10-13T21:33:25.598Z,13.77
2022-10-13T21:35:52.136Z,13.80
2022-10-13T21:38:18.318Z,13.15
2022-10-13T21:40:44.636Z,13.43
2022-10-13T21:43:10.805Z,12.77
2022-10-13T21:45:36.955Z,11.95
2022-10-13T21:48:03.145Z,12.45
2022-10-13T21:50:29.379Z,12.20
2022-10-13T21:52:55.566Z,12.32
2022-10-13T21:55:21.932Z,12.85
2022-10-13T21:57:48.166Z,11.73
2022-10-13T22:00:14.579Z,12.20
2022-10-13T22:02:40.758Z,12.40
2022-10-13T22:05:07.047Z,11.20
2022-10-13T22:07:33.652Z,11.57
2022-10-13T22:09:59.913Z,11.63
2022-10-13T22:12:26.129Z,11.98
2022-10-13T22:14:52.256Z,11.13
2022-10-13T22:17:18.659Z,12.35
2022-10-13T22:19:45.128Z,12.30
2022-10-13T22:22:11.329Z,11.13
2022-10-13T22:24:37.665Z,10.77
2022-10-13T22:27:03.924Z,12.52
2022-10-13T22:29:30.135Z,11.98
2022-10-13T22:31:56.340Z,11.25
2022-10-13T22:34:22.742Z,11.70
2022-10-13T22:36:48.893Z,11.80
2022-10-13T22:39:15.075Z,10.88
2022-10-13T22:41:41.368Z,11.40
2022-10-13T22:44:07.526Z,11.85
2022-10-13T22:46:33.908Z,10.23
2022-10-13T22:49:00.139Z,11.68
2022-10-13T22:51:26.495Z,11.15
2022-10-13T22:53:52.652Z,11.40
2022-10-13T22:56:18.879Z,11.60
2022-10-13T22:58:45.092Z,10.05
2022-10-13T23:01:11.359Z,11.35
2022-10-13T23:03:37.668Z,11.75
2022-10-13T23:06:04.030Z,11.48
2022-10-13T23:08:30.246Z,12.40
2022-10-13T23:10:58.206Z,12.15
2022-10-13T23:13:24.374Z,11.52
2022-10-13T23:15:50.597Z,10.15
2022-10-13T23:18:16.968Z,10.77
2022-10-13T23:20:43.219Z,11.00
2022-10-13T23:23:09.428Z,10.90
2022-10-13T23:25:35.618Z,10.38
2022-10-13T23:28:01.796Z,10.50
2022-10-13T23:30:28.055Z,10.93
2022-10-13T23:32:54.254Z,9.70
2022-10-13T23:35:20.389Z,9.70
2022-10-13T23:37:46.610Z,11.05
2022-10-13T23:40:12.774Z,10.05
2022-10-13T23:42:38.967Z,10.45
2022-10-13T23:45:05.329Z,10.10
2022-10-13T23:47:31.748Z,10.38
2022-10-13T23:49:57.923Z,10.65
2022-10-13T23:52:24.141Z,9.52
2022-10-13T23:54:50.420Z,9.73
2022-10-13T23:57:16.550Z,10.55
2022-10-13T23:59:42.950Z,10.48
